createdAt,value
2019-03-11T00:00:41.589Z,99840.23
2019-03-11T00:03:32.337Z,99838.19
2019-03-11T00:09:55.046Z,99815.84
2019-03-11T00:15:47.693Z,99830.92
2019-03-11T00:18:58.469Z,99825.91
2019-03-11T00:24:44.909Z,99830.15
2019-03-11T00:27:25.929Z,99823.88
2019-03-11T00:29:57.708Z,99824.59
2019-03-11T00:32:48.777Z,99819.52
2019-03-11T00:35:20.126Z,99823.38
2019-03-11T00:38:10.889Z,99819.52
2019-03-11T00:40:53.513Z,99826.86
2019-03-11T00:46:26.337Z,99814.22
2019-03-11T00:52:47.553Z,99814.41
2019-03-11T01:01:08.304Z,99796.97
2019-03-11T01:03:41.436Z,99797.97
2019-03-11T01:06:14.030Z,99794.24
2019-03-11T01:09:06.026Z,99789.41
2019-03-11T01:11:56.483Z,99791.34
2019-03-11T01:15:06.281Z,99768.55
2019-03-11T01:17:36.982Z,99779.22
2019-03-11T01:20:08.140Z,99781.09
2019-03-11T01:22:38.862Z,99776.23
2019-03-11T01:25:09.816Z,99762.82
2019-03-11T01:28:00.495Z,99758.03
2019-03-11T01:30:31.443Z,99761.76
2019-03-11T01:33:02.256Z,99739.83
2019-03-11T01:35:54.187Z,99731.86
2019-03-11T01:38:25.959Z,99735.75
2019-03-11T01:40:56.690Z,99734.34
2019-03-11T01:43:47.274Z,99730.22
2019-03-11T01:46:18.945Z,99723.27
2019-03-11T01:49:10.899Z,99714.03
2019-03-11T01:51:41.705Z,99713.99
2019-03-11T01:54:13.431Z,99707.80
2019-03-11T01:57:03.279Z,99700.72
2019-03-11T01:59:34.064Z,99688.86
2019-03-11T02:05:37.443Z,99664.91
2019-03-11T02:08:20.372Z,99667.56
2019-03-11T02:10:41.171Z,99672.70
2019-03-11T02:13:11.884Z,99657.24
2019-03-11T02:18:54.334Z,99652.03
2019-03-11T02:21:25.257Z,99650.20
2019-03-11T02:23:56.003Z,99649.77
2019-03-11T02:29:55.901Z,99637.55
2019-03-11T02:35:29.980Z,99632.78
2019-03-11T02:38:00.862Z,99635.45
2019-03-11T02:40:31.802Z,99616.75
2019-03-11T02:49:08.378Z,99615.52
2019-03-11T02:51:50.657Z,99615.52
2019-03-11T02:54:40.544Z,99610.14
2019-03-11T02:57:12.233Z,99611.91
2019-03-11T02:59:46.943Z,99595.95
2019-03-11T03:02:55.618Z,99592.62
2019-03-11T03:08:29.856Z,99590.32
2019-03-11T03:14:04.070Z,99577.94
2019-03-11T03:19:36.393Z,99568.89
2019-03-11T03:22:07.404Z,99568.89
2019-03-11T03:24:57.796Z,99570.70
2019-03-11T03:30:31.524Z,99650.28
2019-03-11T03:33:21.379Z,99651.44
2019-03-11T03:35:53.193Z,99655.63
2019-03-11T03:41:29.480Z,99634.62
2019-03-11T03:44:01.228Z,99630.68
2019-03-11T03:46:56.633Z,99639.84
2019-03-11T03:49:28.406Z,99634.58
2019-03-11T03:55:26.166Z,99632.59
2019-03-11T03:58:06.711Z,99640.89
2019-03-11T04:00:47.365Z,99642.70
2019-03-11T04:03:38.081Z,99638.50
2019-03-11T04:06:11.495Z,99631.66
2019-03-11T04:09:21.418Z,99619.36
2019-03-11T04:11:53.028Z,99619.36
2019-03-11T04:14:24.313Z,99628.25
2019-03-11T04:20:05.901Z,99644.30
2019-03-11T04:22:39.485Z,99636.17
2019-03-11T04:34:27.696Z,99645.95
2019-03-11T04:36:58.355Z,99657.84
2019-03-11T04:40:08.798Z,99646.84
2019-03-11T04:42:49.867Z,99642.86
2019-03-11T04:45:39.700Z,99642.02
2019-03-11T04:51:19.886Z,99637.49
2019-03-11T04:53:50.622Z,99636.20
2019-03-11T04:56:22.372Z,99641.86
2019-03-11T04:59:25.193Z,99648.81
2019-03-11T05:01:56.101Z,99667.58
2019-03-11T05:04:27.743Z,99723.27
2019-03-11T05:07:18.563Z,99712.81
2019-03-11T05:10:08.117Z,99703.96
2019-03-11T05:12:42.241Z,99704.88
2019-03-11T05:18:06.717Z,99685.27
2019-03-11T05:21:16.618Z,99681.17
2019-03-11T05:24:11.706Z,99707.04
2019-03-11T05:38:53.062Z,99720.19
2019-03-11T05:41:25.265Z,99719.55
2019-03-11T05:43:56.246Z,99734.02
2019-03-11T05:46:29.045Z,99727.30
2019-03-11T05:49:01.363Z,99734.08
2019-03-11T05:51:52.020Z,99745.19
2019-03-11T05:54:23.595Z,99736.73
2019-03-11T05:57:14.117Z,99752.16
2019-03-11T06:05:59.299Z,99744.50
2019-03-11T06:08:40.016Z,99731.28
2019-03-11T06:11:30.162Z,99724.35
2019-03-11T06:14:21.397Z,99699.88
2019-03-11T06:20:41.866Z,99698.63
2019-03-11T06:23:32.118Z,99711.81
2019-03-11T06:26:22.860Z,99708.27
2019-03-11T06:28:54.706Z,99707.89
2019-03-11T06:31:48.185Z,99719.44
2019-03-11T06:34:39.070Z,99720.10
2019-03-11T06:37:29.866Z,99723.05
2019-03-11T06:40:20.789Z,99712.51
2019-03-11T06:43:12.264Z,99711.39
2019-03-11T06:46:01.841Z,99712.00
2019-03-11T06:48:52.668Z,99712.00
2019-03-11T06:51:43.813Z,99706.56
2019-03-11T06:54:33.759Z,99727.42
2019-03-11T07:00:27.636Z,99720.19
2019-03-11T07:02:58.542Z,99724.91
2019-03-11T07:05:29.356Z,99727.17
2019-03-11T07:08:03.127Z,99723.88
2019-03-11T07:10:35.896Z,99737.38
2019-03-11T07:13:26.827Z,99730.44
2019-03-11T07:15:57.869Z,99727.86
2019-03-11T07:18:29.786Z,99721.76
2019-03-11T07:21:20.835Z,99725.72
2019-03-11T07:24:32.160Z,99717.37
2019-03-11T07:27:22.919Z,99731.45
2019-03-11T07:36:06.022Z,99732.59
2019-03-11T07:38:55.840Z,99727.05
2019-03-11T07:41:29.757Z,99733.84
2019-03-11T07:44:20.464Z,99728.63
2019-03-11T07:46:51.418Z,99732.42
2019-03-11T07:49:41.292Z,99735.38
2019-03-11T07:55:28.838Z,99742.00
2019-03-11T07:58:12.767Z,99745.64
2019-03-11T08:00:54.342Z,99740.49
2019-03-11T08:03:38.160Z,99741.08
2019-03-11T08:06:31.317Z,99741.08
2019-03-11T08:12:12.819Z,99757.40
2019-03-11T08:14:45.612Z,99757.40
2019-03-11T08:17:48.607Z,99737.63
2019-03-11T08:20:10.999Z,99737.63
2019-03-11T08:22:42.688Z,99733.50
2019-03-11T08:25:14.539Z,99753.96
2019-03-11T08:27:48.959Z,99746.83
2019-03-11T08:30:38.684Z,99745.64
2019-03-11T08:33:10.532Z,99750.38
2019-03-11T08:35:55.293Z,99750.06
2019-03-11T08:38:13.890Z,99749.91
2019-03-11T08:40:45.553Z,99756.77
2019-03-11T08:43:40.319Z,99748.91
2019-03-11T08:46:12.056Z,99748.28
2019-03-11T08:48:45.372Z,99756.69
2019-03-11T08:58:01.201Z,99785.53
2019-03-11T09:00:50.917Z,99786.88
2019-03-11T09:04:01.994Z,99789.72
2019-03-11T09:06:33.689Z,99804.17
2019-03-11T09:09:07.270Z,99797.40
2019-03-11T09:12:16.042Z,99794.60
2019-03-11T09:15:06.027Z,99814.92
2019-03-11T09:17:39.320Z,99824.75
2019-03-11T09:23:41.141Z,99820.73
2019-03-11T09:29:07.590Z,99849.27
2019-03-11T09:31:57.351Z,99864.41
2019-03-11T09:34:28.267Z,99856.95
2019-03-11T09:37:30.782Z,99860.66
2019-03-11T09:39:51.463Z,99832.67
2019-03-11T09:45:34.516Z,99842.65
2019-03-11T09:48:25.676Z,99820.32
2019-03-11T09:50:59.049Z,99826.00
2019-03-11T09:54:08.045Z,99813.13
2019-03-11T09:56:43.688Z,99808.94
2019-03-11T09:59:27.200Z,99813.13
2019-03-11T10:02:17.154Z,99824.67
2019-03-11T10:05:08.278Z,99815.41
2019-03-11T10:07:54.164Z,99825.08
2019-03-11T10:10:31.399Z,99826.33
2019-03-11T10:15:48.975Z,99824.45
2019-03-11T10:18:21.392Z,99831.99
2019-03-11T10:21:11.278Z,99827.08
2019-03-11T10:24:20.150Z,99834.89
2019-03-11T10:27:29.108Z,99838.48
2019-03-11T10:30:12.666Z,99843.06
2019-03-11T10:32:52.409Z,99854.72
2019-03-11T10:41:21.133Z,99838.44
2019-03-11T10:44:10.702Z,99833.87
2019-03-11T10:46:44.849Z,99829.55
2019-03-11T10:49:34.752Z,99829.55
2019-03-11T10:52:26.212Z,99865.45
2019-03-11T10:55:49.220Z,99869.17
2019-03-11T11:01:50.239Z,99842.73
2019-03-11T11:04:21.197Z,99831.17
2019-03-11T11:07:29.901Z,99817.73
2019-03-11T11:10:01.737Z,99859.87
2019-03-11T11:12:52.088Z,99815.91
2019-03-11T11:15:42.802Z,99854.90
2019-03-11T11:18:33.586Z,99848.88
2019-03-11T11:21:04.289Z,99879.33
2019-03-11T11:23:37.649Z,99854.48
2019-03-11T11:29:39.525Z,99870.27
2019-03-11T11:35:10.788Z,99868.83
2019-03-11T11:41:31.275Z,99883.84
2019-03-11T11:44:20.788Z,99872.33
2019-03-11T11:47:14.406Z,99891.30
2019-03-11T11:55:58.283Z,99905.02
2019-03-11T11:59:01.914Z,99905.81
2019-03-11T12:01:23.299Z,99909.83
2019-03-11T12:07:21.753Z,99917.11
2019-03-11T12:10:12.738Z,99919.78
2019-03-11T12:13:09.863Z,99924.91
2019-03-11T12:16:02.422Z,99902.47
2019-03-11T12:18:53.346Z,99925.42
2019-03-11T12:21:43.991Z,99950.36
2019-03-11T12:24:29.671Z,99921.96
2019-03-11T12:27:22.592Z,99921.96
2019-03-11T12:29:54.199Z,99928.62
2019-03-11T12:33:08.795Z,99928.34
2019-03-11T12:35:39.722Z,99914.91
2019-03-11T12:50:38.331Z,99928.02
2019-03-11T12:53:28.804Z,99911.63
2019-03-11T12:56:38.775Z,99938.08
2019-03-11T12:59:29.490Z,99936.00
2019-03-11T13:05:03.201Z,99930.80
2019-03-11T13:07:34.838Z,99953.53
2019-03-11T13:13:31.400Z,99953.19
2019-03-11T13:16:02.064Z,99963.81
2019-03-11T13:18:40.101Z,99954.81
2019-03-11T13:21:32.658Z,99970.83
2019-03-11T13:27:12.204Z,99988.27
2019-03-11T13:30:26.110Z,99994.55
2019-03-11T13:33:27.700Z,100002.55
2019-03-11T13:36:09.479Z,100002.09
2019-03-11T13:42:08.860Z,100008.17
2019-03-11T13:44:53.760Z,100014.74
2019-03-11T13:50:41.580Z,99996.06
2019-03-11T13:53:15.134Z,99990.53
2019-03-11T13:59:11.040Z,100039.95
2019-03-11T14:02:02.840Z,100039.95
2019-03-11T14:04:42.692Z,100030.07
2019-03-11T14:10:16.379Z,100065.38
2019-03-11T14:13:26.855Z,100041.72
2019-03-11T14:16:16.695Z,100048.84
2019-03-11T14:19:07.401Z,100058.61
2019-03-11T14:22:11.918Z,100061.27
2019-03-11T14:25:15.763Z,100055.89
2019-03-11T14:28:17.503Z,100056.94
2019-03-11T14:30:51.939Z,100074.70
2019-03-11T14:44:59.087Z,100078.82
2019-03-11T14:53:43.922Z,100102.11
2019-03-11T14:59:26.977Z,100098.69
2019-03-11T15:05:03.068Z,100155.45
2019-03-11T15:13:57.433Z,100164.58
2019-03-11T15:17:06.949Z,100145.64
2019-03-11T15:19:38.097Z,100141.72
2019-03-11T15:22:09.602Z,100125.69
2019-03-11T15:27:52.369Z,100114.53
2019-03-11T15:30:45.054Z,100126.56
2019-03-11T15:36:44.057Z,100116.48
2019-03-11T15:45:37.765Z,100113.58
2019-03-11T15:47:59.963Z,100128.65
2019-03-11T15:50:49.729Z,100142.18
2019-03-11T15:53:21.439Z,100149.13
2019-03-11T15:55:53.299Z,100144.11
2019-03-11T16:01:26.278Z,100202.77
2019-03-11T16:03:58.118Z,100172.08
2019-03-11T16:06:44.111Z,100150.89
2019-03-11T16:12:17.042Z,100128.41
2019-03-11T16:18:46.900Z,100128.77
2019-03-11T16:21:58.034Z,100123.02
2019-03-11T16:34:13.133Z,100129.99
2019-03-11T16:36:50.366Z,100119.66
2019-03-11T16:39:40.793Z,100125.67
2019-03-11T16:45:40.000Z,100125.22
2019-03-11T16:52:00.501Z,100112.00
2019-03-11T16:55:02.311Z,100112.82
2019-03-11T17:00:41.188Z,100122.55
2019-03-11T17:03:34.261Z,100119.03
2019-03-11T17:12:52.243Z,100102.25
2019-03-11T17:15:44.055Z,100101.19
2019-03-11T17:21:17.518Z,100102.16
2019-03-11T17:26:52.237Z,100102.44
2019-03-11T17:30:03.166Z,100101.95
2019-03-11T17:32:36.803Z,100110.12
2019-03-11T17:35:14.910Z,100125.59
2019-03-11T17:37:46.497Z,100086.28
2019-03-11T17:40:17.620Z,100132.62
2019-03-11T17:42:57.916Z,100144.59
2019-03-11T17:51:34.719Z,100151.75
2019-03-11T17:57:10.004Z,100161.23
2019-03-11T18:00:38.491Z,100171.98
2019-03-11T18:09:21.454Z,100164.51
2019-03-11T18:11:52.210Z,100156.22
2019-03-11T18:14:28.308Z,100164.61
2019-03-11T18:17:18.971Z,100169.58
2019-03-11T18:23:06.299Z,100165.73
2019-03-11T18:26:19.270Z,100180.63
2019-03-11T18:28:50.959Z,100198.39
2019-03-11T18:38:10.813Z,100213.38
2019-03-11T18:40:42.905Z,100213.38
2019-03-11T18:46:56.361Z,100182.38
2019-03-11T18:52:54.550Z,100153.63
2019-03-11T18:56:18.465Z,100205.23
2019-03-11T18:58:40.015Z,100216.95
2019-03-11T19:01:48.446Z,100195.68
2019-03-11T19:04:44.181Z,100223.07
2019-03-11T19:12:57.659Z,100256.17
2019-03-11T19:18:32.369Z,100243.52
2019-03-11T19:21:41.876Z,100252.31
2019-03-11T19:27:26.401Z,100262.51
2019-03-11T19:33:27.337Z,100281.64
2019-03-11T19:36:38.116Z,100260.74
2019-03-11T19:42:20.298Z,100289.78
2019-03-11T19:50:36.365Z,100271.53
2019-03-11T19:53:07.279Z,100302.02
2019-03-11T19:55:58.616Z,100289.98
2019-03-11T19:59:06.487Z,100299.49
2019-03-11T20:04:36.788Z,100276.18
2019-03-11T20:07:22.948Z,100276.12
2019-03-11T20:10:13.939Z,100276.12
2019-03-11T20:13:01.740Z,100249.30
2019-03-11T20:15:53.879Z,100280.50
2019-03-11T20:18:27.087Z,100254.52
2019-03-11T20:24:32.155Z,100297.73
2019-03-11T20:32:58.305Z,100298.71
2019-03-11T20:41:34.548Z,100302.38
2019-03-11T20:44:24.906Z,100344.98
2019-03-11T20:50:26.652Z,100337.20
2019-03-11T20:56:19.966Z,100356.98
2019-03-11T21:02:11.141Z,100367.85
2019-03-11T21:04:45.163Z,100383.58
2019-03-11T21:13:28.353Z,100381.08
2019-03-11T21:15:59.472Z,100390.89
2019-03-11T21:30:51.838Z,100404.13
2019-03-11T21:33:42.241Z,100433.79
2019-03-11T21:45:34.372Z,100454.13
2019-03-11T21:48:34.453Z,100469.53
2019-03-11T21:51:15.157Z,100469.53
2019-03-11T21:54:23.953Z,100470.77
2019-03-11T22:00:51.252Z,100492.70
2019-03-11T22:03:29.156Z,100479.73
2019-03-11T22:06:37.842Z,100507.65
2019-03-11T22:12:29.657Z,100519.53
2019-03-11T22:14:50.373Z,100535.95
2019-03-11T22:17:41.149Z,100550.95
2019-03-11T22:23:14.590Z,100549.08
2019-03-11T22:25:46.256Z,100552.28
2019-03-11T22:28:18.078Z,100562.23
2019-03-11T22:31:07.845Z,100566.47
2019-03-11T22:33:38.595Z,100577.34
2019-03-11T22:38:51.318Z,100593.99
2019-03-11T22:41:44.416Z,100600.05
2019-03-11T22:44:35.317Z,100604.78
2019-03-11T22:47:37.516Z,100604.65
2019-03-11T22:53:21.720Z,100613.00
2019-03-11T22:56:12.559Z,100598.39
2019-03-11T23:01:37.885Z,100610.88
2019-03-11T23:04:22.956Z,100614.78
2019-03-11T23:07:03.408Z,100601.77
2019-03-11T23:12:57.338Z,100596.35
2019-03-11T23:18:53.739Z,100560.24
2019-03-11T23:27:26.092Z,100574.64
2019-03-11T23:30:16.787Z,100589.77
2019-03-11T23:32:48.470Z,100587.39
2019-03-11T23:35:38.831Z,100604.20
2019-03-11T23:38:09.768Z,100601.91
2019-03-11T23:43:31.828Z,100605.69
2019-03-11T23:46:03.059Z,100628.10
2019-03-11T23:51:20.131Z,100649.53
2019-03-11T23:53:51.743Z,100651.06
2019-03-11T23:56:23.270Z,100661.41
2019-03-11T23:58:55.006Z,100670.91
